sensor_id;sensor_type;location;lat;lon;timestamp;pressure;altitude;pressure_sealevel;temperature;humidity
55994;BME280;67425;52.126;20.638;2023-08-17T00:01:23;57339.81;;;-144.78;57.67
55994;BME280;67425;52.126;20.638;2023-08-17T00:03:48;57337.75;;;-144.78;56.86
55994;BME280;67425;52.126;20.638;2023-08-17T00:06:13;57339.81;;;-144.78;55.93
55994;BME280;67425;52.126;20.638;2023-08-17T00:08:39;57335.66;;;-144.78;57.33
55994;BME280;67425;52.126;20.638;2023-08-17T00:11:04;57354.34;;;-144.78;58.37
55994;BME280;67425;52.126;20.638;2023-08-17T00:13:29;57302.44;;;-144.78;57.11
55994;BME280;67425;52.126;20.638;2023-08-17T00:15:55;57343.97;;;-144.78;56.88
55994;BME280;67425;52.126;20.638;2023-08-17T00:18:20;57343.97;;;-144.78;57.05
55994;BME280;67425;52.126;20.638;2023-08-17T00:20:45;57329.44;;;-144.78;56.66
55994;BME280;67425;52.126;20.638;2023-08-17T00:23:11;57333.59;;;-144.78;58.01
55994;BME280;67425;52.126;20.638;2023-08-17T00:25:36;57352.28;;;-144.78;58.68
55994;BME280;67425;52.126;20.638;2023-08-17T00:28:01;57352.28;;;-144.78;57.75
55994;BME280;67425;52.126;20.638;2023-08-17T00:30:27;57364.75;;;-144.78;58.02
55994;BME280;67425;52.126;20.638;2023-08-17T00:32:52;57314.91;;;-144.78;57.40
55994;BME280;67425;52.126;20.638;2023-08-17T00:35:17;57287.91;;;-144.78;57.45
55994;BME280;67425;52.126;20.638;2023-08-17T00:37:43;57323.22;;;-144.78;57.25
55994;BME280;67425;52.126;20.638;2023-08-17T00:40:08;57368.91;;;-144.78;58.08
55994;BME280;67425;52.126;20.638;2023-08-17T00:42:34;57327.34;;;-144.78;57.91
55994;BME280;67425;52.126;20.638;2023-08-17T00:44:59;57362.66;;;-144.78;59.42
55994;BME280;67425;52.126;20.638;2023-08-17T00:47:25;57356.44;;;-144.78;59.90
55994;BME280;67425;52.126;20.638;2023-08-17T00:49:50;57348.13;;;-144.78;59.10
55994;BME280;67425;52.126;20.638;2023-08-17T00:52:16;57362.66;;;-144.78;61.27
55994;BME280;67425;52.126;20.638;2023-08-17T00:54:41;57356.44;;;-144.78;59.73
55994;BME280;67425;52.126;20.638;2023-08-17T00:57:08;57402.13;;;-144.78;59.27
55994;BME280;67425;52.126;20.638;2023-08-17T00:59:34;57360.59;;;-144.78;60.56
55994;BME280;67425;52.126;20.638;2023-08-17T01:02:00;57333.59;;;-144.78;59.19
55994;BME280;67425;52.126;20.638;2023-08-17T01:04:26;57377.19;;;-144.78;59.16
55994;BME280;67425;52.126;20.638;2023-08-17T01:06:51;57366.81;;;-144.78;59.42
55994;BME280;67425;52.126;20.638;2023-08-17T01:09:17;57350.19;;;-144.78;59.57
55994;BME280;67425;52.126;20.638;2023-08-17T01:11:52;57381.34;;;-144.78;62.15
55994;BME280;67425;52.126;20.638;2023-08-17T01:14:32;57385.50;;;-144.78;60.64
55994;BME280;67425;52.126;20.638;2023-08-17T01:17:04;57437.44;;;-144.78;61.34
55994;BME280;67425;52.126;20.638;2023-08-17T01:19:32;57373.06;;;-144.78;61.08
55994;BME280;67425;52.126;20.638;2023-08-17T01:22:04;57352.28;;;-144.78;60.50
55994;BME280;67425;52.126;20.638;2023-08-17T01:24:30;57397.97;;;-144.78;60.23
55994;BME280;67425;52.126;20.638;2023-08-17T01:26:55;57339.81;;;-144.78;60.23
55994;BME280;67425;52.126;20.638;2023-08-17T01:29:21;57385.50;;;-144.78;60.23
55994;BME280;67425;52.126;20.638;2023-08-17T01:31:58;57397.97;;;-144.78;60.58
55994;BME280;67425;52.126;20.638;2023-08-17T01:34:25;57395.88;;;-144.78;59.68
55994;BME280;67425;52.126;20.638;2023-08-17T01:36:58;57373.06;;;-144.78;58.73
55994;BME280;67425;52.126;20.638;2023-08-17T01:39:28;57389.66;;;-144.78;58.79
55994;BME280;67425;52.126;20.638;2023-08-17T01:41:56;57329.44;;;-144.78;58.69
55994;BME280;67425;52.126;20.638;2023-08-17T01:44:22;57368.91;;;-144.78;59.46
55994;BME280;67425;52.126;20.638;2023-08-17T01:46:48;57375.13;;;-144.78;59.69
55994;BME280;67425;52.126;20.638;2023-08-17T01:49:13;57362.66;;;-144.78;59.90
55994;BME280;67425;52.126;20.638;2023-08-17T01:51:39;57362.66;;;-144.78;60.28
55994;BME280;67425;52.126;20.638;2023-08-17T01:54:04;57354.34;;;-144.78;60.52
55994;BME280;67425;52.126;20.638;2023-08-17T01:56:30;57364.75;;;-144.78;59.39
55994;BME280;67425;52.126;20.638;2023-08-17T01:58:55;57341.91;;;-144.78;59.86
55994;BME280;67425;52.126;20.638;2023-08-17T02:01:20;57377.19;;;-144.78;59.84
55994;BME280;67425;52.126;20.638;2023-08-17T02:03:45;57352.28;;;-144.78;60.44
55994;BME280;67425;52.126;20.638;2023-08-17T02:06:11;57341.91;;;-144.78;59.56
55994;BME280;67425;52.126;20.638;2023-08-17T02:08:37;57368.91;;;-144.78;59.42
55994;BME280;67425;52.126;20.638;2023-08-17T02:11:03;57381.34;;;-144.78;61.79
55994;BME280;67425;52.126;20.638;2023-08-17T02:13:28;57391.75;;;-144.78;61.47
55994;BME280;67425;52.126;20.638;2023-08-17T02:15:54;57364.75;;;-144.78;60.64
55994;BME280;67425;52.126;20.638;2023-08-17T02:18:19;57362.66;;;-144.78;59.35
55994;BME280;67425;52.126;20.638;2023-08-17T02:20:45;57360.59;;;-144.78;58.96
55994;BME280;67425;52.126;20.638;2023-08-17T02:23:10;57387.59;;;-144.78;58.09
55994;BME280;67425;52.126;20.638;2023-08-17T02:25:39;57356.44;;;-144.78;58.05
55994;BME280;67425;52.126;20.638;2023-08-17T02:28:05;57389.66;;;-144.78;62.67
55994;BME280;67425;52.126;20.638;2023-08-17T02:30:30;57387.59;;;-144.78;61.04
55994;BME280;67425;52.126;20.638;2023-08-17T02:32:56;57381.34;;;-144.78;59.23
55994;BME280;67425;52.126;20.638;2023-08-17T02:35:22;57360.59;;;-144.78;58.89
55994;BME280;67425;52.126;20.638;2023-08-17T02:37:47;57350.19;;;-144.78;58.51
55994;BME280;67425;52.126;20.638;2023-08-17T02:40:12;57366.81;;;-144.78;60.85
55994;BME280;67425;52.126;20.638;2023-08-17T02:42:38;57395.88;;;-144.78;60.42
55994;BME280;67425;52.126;20.638;2023-08-17T02:45:05;57368.91;;;-144.78;59.20
55994;BME280;67425;52.126;20.638;2023-08-17T02:47:31;57366.81;;;-144.78;58.90
55994;BME280;67425;52.126;20.638;2023-08-17T02:49:56;57352.28;;;-144.78;58.65
55994;BME280;67425;52.126;20.638;2023-08-17T02:52:22;57364.75;;;-144.78;59.20
55994;BME280;67425;52.126;20.638;2023-08-17T02:54:47;57356.44;;;-144.78;58.10
55994;BME280;67425;52.126;20.638;2023-08-17T02:57:12;57385.50;;;-144.78;59.51
55994;BME280;67425;52.126;20.638;2023-08-17T02:59:38;57377.19;;;-144.78;59.74
55994;BME280;67425;52.126;20.638;2023-08-17T03:02:03;57375.13;;;-144.78;57.93
55994;BME280;67425;52.126;20.638;2023-08-17T03:04:28;57377.19;;;-144.78;58.99
55994;BME280;67425;52.126;20.638;2023-08-17T03:06:54;57373.06;;;-144.78;59.64
55994;BME280;67425;52.126;20.638;2023-08-17T03:09:19;57406.28;;;-144.78;59.95
55994;BME280;67425;52.126;20.638;2023-08-17T03:11:44;57387.59;;;-144.78;59.84
55994;BME280;67425;52.126;20.638;2023-08-17T03:14:09;57368.91;;;-144.78;60.02
55994;BME280;67425;52.126;20.638;2023-08-17T03:16:35;57377.19;;;-144.78;59.95
55994;BME280;67425;52.126;20.638;2023-08-17T03:19:00;57383.44;;;-144.78;60.24
55994;BME280;67425;52.126;20.638;2023-08-17T03:21:25;57352.28;;;-144.78;58.91
55994;BME280;67425;52.126;20.638;2023-08-17T03:23:52;57360.59;;;-144.78;57.88
55994;BME280;67425;52.126;20.638;2023-08-17T03:26:17;57360.59;;;-144.78;57.97
55994;BME280;67425;52.126;20.638;2023-08-17T03:28:43;57389.66;;;-144.78;59.71
55994;BME280;67425;52.126;20.638;2023-08-17T03:31:08;57341.91;;;-144.78;58.13
55994;BME280;67425;52.126;20.638;2023-08-17T03:33:34;57391.75;;;-144.78;59.47
55994;BME280;67425;52.126;20.638;2023-08-17T03:36:00;57360.59;;;-144.78;60.87
55994;BME280;67425;52.126;20.638;2023-08-17T03:38:25;57356.44;;;-144.78;58.46
55994;BME280;67425;52.126;20.638;2023-08-17T03:40:51;57354.34;;;-144.78;58.65
55994;BME280;67425;52.126;20.638;2023-08-17T03:43:16;57373.06;;;-144.78;58.99
55994;BME280;67425;52.126;20.638;2023-08-17T03:45:42;57354.34;;;-144.78;58.24
55994;BME280;67425;52.126;20.638;2023-08-17T03:48:08;57366.81;;;-144.78;58.25
55994;BME280;67425;52.126;20.638;2023-08-17T03:50:34;57370.97;;;-144.78;57.59
55994;BME280;67425;52.126;20.638;2023-08-17T03:52:59;57321.13;;;-144.78;57.28
55994;BME280;67425;52.126;20.638;2023-08-17T03:55:24;57395.88;;;-144.78;57.30
55994;BME280;67425;52.126;20.638;2023-08-17T03:57:50;57364.75;;;-144.78;57.16
55994;BME280;67425;52.126;20.638;2023-08-17T04:00:15;57352.28;;;-144.78;56.65
55994;BME280;67425;52.126;20.638;2023-08-17T04:02:40;57366.81;;;-144.78;56.48
55994;BME280;67425;52.126;20.638;2023-08-17T04:05:06;57373.06;;;-144.78;56.48
55994;BME280;67425;52.126;20.638;2023-08-17T04:07:31;57375.13;;;-144.78;56.35
55994;BME280;67425;52.126;20.638;2023-08-17T04:09:56;57343.97;;;-144.78;56.13
55994;BME280;67425;52.126;20.638;2023-08-17T04:12:22;57381.34;;;-144.78;56.13
55994;BME280;67425;52.126;20.638;2023-08-17T04:14:47;57360.59;;;-144.78;56.86
55994;BME280;67425;52.126;20.638;2023-08-17T04:17:13;57385.50;;;-144.78;56.54
55994;BME280;67425;52.126;20.638;2023-08-17T04:19:38;57395.88;;;-144.78;56.54
55994;BME280;67425;52.126;20.638;2023-08-17T04:22:03;57397.97;;;-144.78;56.90
55994;BME280;67425;52.126;20.638;2023-08-17T04:24:29;57375.13;;;-144.78;57.58
55994;BME280;67425;52.126;20.638;2023-08-17T04:26:54;57383.44;;;-144.78;57.84
55994;BME280;67425;52.126;20.638;2023-08-17T04:29:20;57368.91;;;-144.78;57.08
55994;BME280;67425;52.126;20.638;2023-08-17T04:31:45;57323.22;;;-144.78;56.33
55994;BME280;67425;52.126;20.638;2023-08-17T04:34:11;57346.06;;;-144.78;56.23
55994;BME280;67425;52.126;20.638;2023-08-17T04:36:36;57321.13;;;-144.78;56.62
55994;BME280;67425;52.126;20.638;2023-08-17T04:39:02;57346.06;;;-144.78;55.91
55994;BME280;67425;52.126;20.638;2023-08-17T04:41:29;57327.34;;;-144.78;56.20
55994;BME280;67425;52.126;20.638;2023-08-17T04:43:55;57339.81;;;-144.78;55.62
55994;BME280;67425;52.126;20.638;2023-08-17T04:46:20;57354.34;;;-144.78;55.35
55994;BME280;67425;52.126;20.638;2023-08-17T04:48:45;57321.13;;;-144.78;55.56
55994;BME280;67425;52.126;20.638;2023-08-17T04:51:11;57375.13;;;-144.78;54.06
55994;BME280;67425;52.126;20.638;2023-08-17T04:53:36;57352.28;;;-144.78;53.70
55994;BME280;67425;52.126;20.638;2023-08-17T04:56:02;57335.66;;;-144.78;54.02
55994;BME280;67425;52.126;20.638;2023-08-17T04:58:28;57356.44;;;-144.78;53.64
55994;BME280;67425;52.126;20.638;2023-08-17T05:00:53;57356.44;;;-144.78;53.39
55994;BME280;67425;52.126;20.638;2023-08-17T05:03:19;57314.91;;;-144.78;52.91
55994;BME280;67425;52.126;20.638;2023-08-17T05:05:44;57325.28;;;-144.78;53.16
55994;BME280;67425;52.126;20.638;2023-08-17T05:08:09;57348.13;;;-144.78;53.90
55994;BME280;67425;52.126;20.638;2023-08-17T05:10:35;57346.06;;;-144.78;52.26
55994;BME280;67425;52.126;20.638;2023-08-17T05:13:00;57360.59;;;-144.78;51.87
55994;BME280;67425;52.126;20.638;2023-08-17T05:15:25;57368.91;;;-144.78;52.25
55994;BME280;67425;52.126;20.638;2023-08-17T05:17:51;57341.91;;;-144.78;52.56
55994;BME280;67425;52.126;20.638;2023-08-17T05:20:16;57346.06;;;-144.78;53.12
55994;BME280;67425;52.126;20.638;2023-08-17T05:22:42;57329.44;;;-144.78;51.72
55994;BME280;67425;52.126;20.638;2023-08-17T05:25:07;57333.59;;;-144.78;51.14
55994;BME280;67425;52.126;20.638;2023-08-17T05:27:33;57354.34;;;-144.78;51.61
55994;BME280;67425;52.126;20.638;2023-08-17T05:29:58;57364.75;;;-144.78;52.47
55994;BME280;67425;52.126;20.638;2023-08-17T05:32:23;57341.91;;;-144.78;51.79
55994;BME280;67425;52.126;20.638;2023-08-17T05:34:49;57358.50;;;-144.78;51.53
55994;BME280;67425;52.126;20.638;2023-08-17T05:37:14;57335.66;;;-144.78;51.91
55994;BME280;67425;52.126;20.638;2023-08-17T05:39:41;57348.13;;;-144.78;52.42
55994;BME280;67425;52.126;20.638;2023-08-17T05:42:07;57335.66;;;-144.78;51.24
55994;BME280;67425;52.126;20.638;2023-08-17T05:44:32;57352.28;;;-144.78;51.09
55994;BME280;67425;52.126;20.638;2023-08-17T05:46:57;57312.81;;;-144.78;49.66
55994;BME280;67425;52.126;20.638;2023-08-17T05:49:23;57294.13;;;-144.78;49.53
55994;BME280;67425;52.126;20.638;2023-08-17T05:51:48;57310.75;;;-144.78;49.80
55994;BME280;67425;52.126;20.638;2023-08-17T05:54:14;57339.81;;;-144.78;50.66
55994;BME280;67425;52.126;20.638;2023-08-17T05:56:39;57323.22;;;-144.78;49.56
55994;BME280;67425;52.126;20.638;2023-08-17T05:59:10;57335.66;;;-144.78;48.93
55994;BME280;67425;52.126;20.638;2023-08-17T06:01:35;57362.66;;;-144.78;48.90
55994;BME280;67425;52.126;20.638;2023-08-17T06:04:01;57354.34;;;-144.78;48.99
55994;BME280;67425;52.126;20.638;2023-08-17T06:06:26;57300.38;;;-144.78;48.69
55994;BME280;67425;52.126;20.638;2023-08-17T06:08:51;57304.50;;;-144.78;48.43
55994;BME280;67425;52.126;20.638;2023-08-17T06:11:17;57269.22;;;-144.78;46.59
55994;BME280;67425;52.126;20.638;2023-08-17T06:13:42;57352.28;;;-144.78;48.79
55994;BME280;67425;52.126;20.638;2023-08-17T06:16:08;57335.66;;;-144.78;48.62
55994;BME280;67425;52.126;20.638;2023-08-17T06:18:33;57310.75;;;-144.78;48.72
55994;BME280;67425;52.126;20.638;2023-08-17T06:20:59;57306.59;;;-144.78;48.72
55994;BME280;67425;52.126;20.638;2023-08-17T06:23:24;57352.28;;;-144.78;48.77
55994;BME280;67425;52.126;20.638;2023-08-17T06:25:50;57339.81;;;-144.78;48.52
55994;BME280;67425;52.126;20.638;2023-08-17T06:28:16;57296.22;;;-144.78;47.68
55994;BME280;67425;52.126;20.638;2023-08-17T06:30:41;57343.97;;;-144.78;48.70
55994;BME280;67425;52.126;20.638;2023-08-17T06:33:06;57292.06;;;-144.78;47.09
55994;BME280;67425;52.126;20.638;2023-08-17T06:35:32;57298.28;;;-144.78;48.00
55994;BME280;67425;52.126;20.638;2023-08-17T06:37:57;57281.69;;;-144.78;47.81
55994;BME280;67425;52.126;20.638;2023-08-17T06:40:24;57275.44;;;-144.78;46.60
55994;BME280;67425;52.126;20.638;2023-08-17T06:42:49;57248.44;;;-144.78;45.55
55994;BME280;67425;52.126;20.638;2023-08-17T06:45:15;57289.97;;;-144.78;45.96
55994;BME280;67425;52.126;20.638;2023-08-17T06:47:43;57294.13;;;-144.78;45.47
55994;BME280;67425;52.126;20.638;2023-08-17T06:50:10;57250.53;;;-144.78;45.31
55994;BME280;67425;52.126;20.638;2023-08-17T06:52:35;57265.06;;;-144.78;45.41
55994;BME280;67425;52.126;20.638;2023-08-17T06:55:01;57279.59;;;-144.78;45.90
55994;BME280;67425;52.126;20.638;2023-08-17T06:57:26;57275.44;;;-144.78;44.82
55994;BME280;67425;52.126;20.638;2023-08-17T06:59:52;57242.22;;;-144.78;45.77
55994;BME280;67425;52.126;20.638;2023-08-17T07:02:17;57273.38;;;-144.78;45.19
55994;BME280;67425;52.126;20.638;2023-08-17T07:04:43;57231.84;;;-144.78;45.18
55994;BME280;67425;52.126;20.638;2023-08-17T07:07:08;57252.59;;;-144.78;44.23
55994;BME280;67425;52.126;20.638;2023-08-17T07:09:33;57269.22;;;-144.78;43.88
55994;BME280;67425;52.126;20.638;2023-08-17T07:11:59;57250.53;;;-144.78;43.96
55994;BME280;67425;52.126;20.638;2023-08-17T07:14:24;57252.59;;;-144.78;43.81
55994;BME280;67425;52.126;20.638;2023-08-17T07:16:50;57231.84;;;-144.78;43.21
55994;BME280;67425;52.126;20.638;2023-08-17T07:19:15;57267.13;;;-144.78;43.50
55994;BME280;67425;52.126;20.638;2023-08-17T07:21:40;57258.84;;;-144.78;43.64
55994;BME280;67425;52.126;20.638;2023-08-17T07:24:13;57296.22;;;-144.78;43.98
55994;BME280;67425;52.126;20.638;2023-08-17T07:26:39;57265.06;;;-144.78;43.63
55994;BME280;67425;52.126;20.638;2023-08-17T07:29:04;57242.22;;;-144.78;43.85
55994;BME280;67425;52.126;20.638;2023-08-17T07:31:29;57242.22;;;-144.78;42.42
55994;BME280;67425;52.126;20.638;2023-08-17T07:33:55;57188.22;;;-144.78;42.42
55994;BME280;67425;52.126;20.638;2023-08-17T07:36:21;57171.63;;;-144.78;42.28
55994;BME280;67425;52.126;20.638;2023-08-17T07:38:46;57225.59;;;-144.78;43.62
55994;BME280;67425;52.126;20.638;2023-08-17T07:41:11;57240.13;;;-144.78;41.53
55994;BME280;67425;52.126;20.638;2023-08-17T07:43:37;57215.22;;;-144.78;42.37
55994;BME280;67425;52.126;20.638;2023-08-17T07:46:02;57242.22;;;-144.78;42.89
55994;BME280;67425;52.126;20.638;2023-08-17T07:48:27;57202.75;;;-144.78;41.69
55994;BME280;67425;52.126;20.638;2023-08-17T07:50:54;57190.31;;;-144.78;41.70
55994;BME280;67425;52.126;20.638;2023-08-17T07:53:20;57177.84;;;-144.78;40.87
55994;BME280;67425;52.126;20.638;2023-08-17T07:55:45;57219.38;;;-144.78;42.84
55994;BME280;67425;52.126;20.638;2023-08-17T07:58:11;57223.53;;;-144.78;42.37
55994;BME280;67425;52.126;20.638;2023-08-17T08:00:36;57190.31;;;-144.78;42.58
55994;BME280;67425;52.126;20.638;2023-08-17T08:03:01;57211.06;;;-144.78;41.71
55994;BME280;67425;52.126;20.638;2023-08-17T08:05:27;57231.84;;;-144.78;42.07
55994;BME280;67425;52.126;20.638;2023-08-17T08:07:52;57177.84;;;-144.78;42.20
55994;BME280;67425;52.126;20.638;2023-08-17T08:10:18;57213.16;;;-144.78;42.06
55994;BME280;67425;52.126;20.638;2023-08-17T08:12:43;57182.00;;;-144.78;41.69
55994;BME280;67425;52.126;20.638;2023-08-17T08:15:09;57169.53;;;-144.78;42.42
55994;BME280;67425;52.126;20.638;2023-08-17T08:17:34;57161.22;;;-144.78;41.05
55994;BME280;67425;52.126;20.638;2023-08-17T08:20:00;57184.06;;;-144.78;40.42
55994;BME280;67425;52.126;20.638;2023-08-17T08:22:25;57173.69;;;-144.78;41.41
55994;BME280;67425;52.126;20.638;2023-08-17T08:24:51;57150.84;;;-144.78;41.18
55994;BME280;67425;52.126;20.638;2023-08-17T08:27:16;57142.53;;;-144.78;40.49
55994;BME280;67425;52.126;20.638;2023-08-17T08:29:41;57184.06;;;-144.78;40.54
55994;BME280;67425;52.126;20.638;2023-08-17T08:32:07;57144.63;;;-144.78;40.82
55994;BME280;67425;52.126;20.638;2023-08-17T08:34:32;57177.84;;;-144.78;41.77
55994;BME280;67425;52.126;20.638;2023-08-17T08:36:57;57128.00;;;-144.78;41.41
55994;BME280;67425;52.126;20.638;2023-08-17T08:39:25;57165.38;;;-144.78;40.59
55994;BME280;67425;52.126;20.638;2023-08-17T08:41:51;57140.47;;;-144.78;40.65
55994;BME280;67425;52.126;20.638;2023-08-17T08:44:16;57132.16;;;-144.78;40.59
55994;BME280;67425;52.126;20.638;2023-08-17T08:46:42;57098.94;;;-144.78;40.01
55994;BME280;67425;52.126;20.638;2023-08-17T08:49:10;57125.94;;;-144.78;41.41
55994;BME280;67425;52.126;20.638;2023-08-17T08:51:38;57101.00;;;-144.78;39.57
55994;BME280;67425;52.126;20.638;2023-08-17T08:54:08;57078.16;;;-144.78;38.97
55994;BME280;67425;52.126;20.638;2023-08-17T08:56:38;57113.47;;;-144.78;40.01
55994;BME280;67425;52.126;20.638;2023-08-17T08:59:06;57101.00;;;-144.78;38.91
55994;BME280;67425;52.126;20.638;2023-08-17T09:01:33;57101.00;;;-144.78;38.79
55994;BME280;67425;52.126;20.638;2023-08-17T09:03:59;57084.41;;;-144.78;38.80
55994;BME280;67425;52.126;20.638;2023-08-17T09:06:27;57090.63;;;-144.78;38.32
55994;BME280;67425;52.126;20.638;2023-08-17T09:08:52;57053.25;;;-144.78;37.62
55994;BME280;67425;52.126;20.638;2023-08-17T09:11:18;57094.78;;;-144.78;38.93
55994;BME280;67425;52.126;20.638;2023-08-17T09:13:43;57157.06;;;-144.78;38.50
55994;BME280;67425;52.126;20.638;2023-08-17T09:16:09;57090.63;;;-144.78;38.28
55994;BME280;67425;52.126;20.638;2023-08-17T09:18:34;57096.84;;;-144.78;38.50
55994;BME280;67425;52.126;20.638;2023-08-17T09:21:01;57076.09;;;-144.78;39.27
55994;BME280;67425;52.126;20.638;2023-08-17T09:23:26;57082.31;;;-144.78;38.75
55994;BME280;67425;52.126;20.638;2023-08-17T09:25:52;57098.94;;;-144.78;37.66
55994;BME280;67425;52.126;20.638;2023-08-17T09:28:19;57071.94;;;-144.78;38.69
55994;BME280;67425;52.126;20.638;2023-08-17T09:30:59;57094.78;;;-144.78;38.91
55994;BME280;67425;52.126;20.638;2023-08-17T09:33:30;57024.19;;;-144.78;37.36
55994;BME280;67425;52.126;20.638;2023-08-17T09:35:56;57007.56;;;-144.78;36.83
55994;BME280;67425;52.126;20.638;2023-08-17T09:38:23;57015.88;;;-144.78;35.76
55994;BME280;67425;52.126;20.638;2023-08-17T09:40:49;56974.34;;;-144.78;36.33
55994;BME280;67425;52.126;20.638;2023-08-17T09:43:15;57009.66;;;-144.78;34.83
55994;BME280;67425;52.126;20.638;2023-08-17T09:45:43;57036.63;;;-144.78;34.22
55994;BME280;67425;52.126;20.638;2023-08-17T09:48:16;57036.63;;;-144.78;35.35
55994;BME280;67425;52.126;20.638;2023-08-17T09:50:43;57001.34;;;-144.78;33.12
55994;BME280;67425;52.126;20.638;2023-08-17T09:53:17;57051.16;;;-144.78;33.44
55994;BME280;67425;52.126;20.638;2023-08-17T09:55:44;57007.56;;;-144.78;34.32
55994;BME280;67425;52.126;20.638;2023-08-17T09:58:10;57007.56;;;-144.78;33.94
55994;BME280;67425;52.126;20.638;2023-08-17T10:00:43;57015.88;;;-144.78;33.96
55994;BME280;67425;52.126;20.638;2023-08-17T10:03:11;56970.19;;;-144.78;33.31
55994;BME280;67425;52.126;20.638;2023-08-17T10:05:40;57042.88;;;-144.78;33.32
55994;BME280;67425;52.126;20.638;2023-08-17T10:08:06;56990.97;;;-144.78;34.57
55994;BME280;67425;52.126;20.638;2023-08-17T10:10:34;56972.25;;;-144.78;33.76
55994;BME280;67425;52.126;20.638;2023-08-17T10:13:15;56982.66;;;-144.78;32.47
55994;BME280;67425;52.126;20.638;2023-08-17T10:15:47;56941.13;;;-144.78;31.76
55994;BME280;67425;52.126;20.638;2023-08-17T10:20:52;56934.88;;;-144.78;33.08
55994;BME280;67425;52.126;20.638;2023-08-17T10:23:22;56895.44;;;-144.78;31.47
55994;BME280;67425;52.126;20.638;2023-08-17T10:25:49;56895.44;;;-144.78;30.44
55994;BME280;67425;52.126;20.638;2023-08-17T10:28:16;56903.75;;;-144.78;31.15
55994;BME280;67425;52.126;20.638;2023-08-17T10:30:42;56920.34;;;-144.78;31.83
55994;BME280;67425;52.126;20.638;2023-08-17T10:33:08;56922.44;;;-144.78;32.01
55994;BME280;67425;52.126;20.638;2023-08-17T10:35:35;56887.13;;;-144.78;30.71
55994;BME280;67425;52.126;20.638;2023-08-17T10:38:02;56882.97;;;-144.78;31.38
55994;BME280;67425;52.126;20.638;2023-08-17T10:40:35;56895.44;;;-144.78;32.25
55994;BME280;67425;52.126;20.638;2023-08-17T10:43:01;56966.03;;;-144.78;30.17
55994;BME280;67425;52.126;20.638;2023-08-17T10:45:29;56934.88;;;-144.78;30.89
55994;BME280;67425;52.126;20.638;2023-08-17T10:50:33;56922.44;;;-144.78;32.14
55994;BME280;67425;52.126;20.638;2023-08-17T10:53:04;56934.88;;;-144.78;31.09
55994;BME280;67425;52.126;20.638;2023-08-17T10:55:37;56855.97;;;-144.78;30.49
55994;BME280;67425;52.126;20.638;2023-08-17T10:58:03;56959.81;;;-144.78;31.63
55994;BME280;67425;52.126;20.638;2023-08-17T11:00:35;56939.03;;;-144.78;31.45
55994;BME280;67425;52.126;20.638;2023-08-17T11:03:05;56941.13;;;-144.78;31.26
55994;BME280;67425;52.126;20.638;2023-08-17T11:08:06;56916.19;;;-144.78;30.36
55994;BME280;67425;52.126;20.638;2023-08-17T11:10:33;56880.91;;;-144.78;29.07
55994;BME280;67425;52.126;20.638;2023-08-17T11:12:59;56891.28;;;-144.78;30.56
55994;BME280;67425;52.126;20.638;2023-08-17T11:15:26;56882.97;;;-144.78;29.92
55994;BME280;67425;52.126;20.638;2023-08-17T11:18:00;56893.34;;;-144.78;29.56
55994;BME280;67425;52.126;20.638;2023-08-17T11:20:25;56843.53;;;-144.78;28.34
55994;BME280;67425;52.126;20.638;2023-08-17T11:22:51;56882.97;;;-144.78;28.62
55994;BME280;67425;52.126;20.638;2023-08-17T11:25:17;56901.66;;;-144.78;27.69
55994;BME280;67425;52.126;20.638;2023-08-17T11:27:42;56839.38;;;-144.78;29.25
55994;BME280;67425;52.126;20.638;2023-08-17T11:30:08;56872.59;;;-144.78;28.67
55994;BME280;67425;52.126;20.638;2023-08-17T11:32:34;56893.34;;;-144.78;30.07
55994;BME280;67425;52.126;20.638;2023-08-17T11:34:59;56882.97;;;-144.78;29.53
55994;BME280;67425;52.126;20.638;2023-08-17T11:37:25;56847.69;;;-144.78;30.02
55994;BME280;67425;52.126;20.638;2023-08-17T11:39:50;56845.59;;;-144.78;29.62
55994;BME280;67425;52.126;20.638;2023-08-17T11:42:15;56876.75;;;-144.78;29.94
55994;BME280;67425;52.126;20.638;2023-08-17T11:44:41;56826.91;;;-144.78;28.74
55994;BME280;67425;52.126;20.638;2023-08-17T11:47:06;56905.81;;;-144.78;29.07
55994;BME280;67425;52.126;20.638;2023-08-17T11:49:32;56903.75;;;-144.78;28.14
55994;BME280;67425;52.126;20.638;2023-08-17T11:51:57;56878.81;;;-144.78;28.81
55994;BME280;67425;52.126;20.638;2023-08-17T11:54:22;56849.75;;;-144.78;28.46
55994;BME280;67425;52.126;20.638;2023-08-17T11:56:48;56889.22;;;-144.78;28.36
55994;BME280;67425;52.126;20.638;2023-08-17T11:59:13;56806.16;;;-144.78;27.77
55994;BME280;67425;52.126;20.638;2023-08-17T12:01:39;56864.28;;;-144.78;28.72
55994;BME280;67425;52.126;20.638;2023-08-17T12:04:06;56826.91;;;-144.78;28.41
55994;BME280;67425;52.126;20.638;2023-08-17T12:06:31;56829.00;;;-144.78;28.34
55994;BME280;67425;52.126;20.638;2023-08-17T12:08:57;56831.06;;;-144.78;27.95
55994;BME280;67425;52.126;20.638;2023-08-17T12:11:25;56766.69;;;-144.78;28.85
55994;BME280;67425;52.126;20.638;2023-08-17T12:13:52;56831.06;;;-144.78;28.45
55994;BME280;67425;52.126;20.638;2023-08-17T12:16:19;56853.91;;;-144.78;28.44
55994;BME280;67425;52.126;20.638;2023-08-17T12:18:51;56816.53;;;-144.78;28.30
55994;BME280;67425;52.126;20.638;2023-08-17T12:21:21;56791.63;;;-144.78;28.54
55994;BME280;67425;52.126;20.638;2023-08-17T12:23:47;56789.53;;;-144.78;28.17
55994;BME280;67425;52.126;20.638;2023-08-17T12:26:18;56787.47;;;-144.78;28.29
55994;BME280;67425;52.126;20.638;2023-08-17T12:28:44;56810.31;;;-144.78;27.73
55994;BME280;67425;52.126;20.638;2023-08-17T12:31:09;56791.63;;;-144.78;28.82
55994;BME280;67425;52.126;20.638;2023-08-17T12:33:35;56835.22;;;-144.78;28.24